sensor_id;sensor_type;location;lat;lon;timestamp;temperature;humidity
10386;DHT22;34307;51.332;12.334;2023-05-20T00:02:09;12.00;99.90
10386;DHT22;34307;51.332;12.334;2023-05-20T00:04:37;11.90;99.90
10386;DHT22;34307;51.332;12.334;2023-05-20T00:07:07;12.00;99.90
10386;DHT22;34307;51.332;12.334;2023-05-20T00:09:38;11.90;99.90
10386;DHT22;34307;51.332;12.334;2023-05-20T00:12:06;11.90;99.90
10386;DHT22;34307;51.332;12.334;2023-05-20T00:14:36;11.90;99.90
10386;DHT22;34307;51.332;12.334;2023-05-20T00:17:04;11.90;99.90
10386;DHT22;34307;51.332;12.334;2023-05-20T00:19:33;11.90;99.90
10386;DHT22;34307;51.332;12.334;2023-05-20T00:22:03;11.80;99.90
10386;DHT22;34307;51.332;12.334;2023-05-20T00:24:33;11.80;99.90
10386;DHT22;34307;51.332;12.334;2023-05-20T00:27:03;11.90;99.90
10386;DHT22;34307;51.332;12.334;2023-05-20T00:29:32;11.80;99.90
10386;DHT22;34307;51.332;12.334;2023-05-20T00:32:02;11.80;99.90
10386;DHT22;34307;51.332;12.334;2023-05-20T00:34:30;11.90;99.90
10386;DHT22;34307;51.332;12.334;2023-05-20T00:37:02;11.90;99.90
10386;DHT22;34307;51.332;12.334;2023-05-20T00:39:33;11.90;99.90
10386;DHT22;34307;51.332;12.334;2023-05-20T00:42:01;11.90;99.90
10386;DHT22;34307;51.332;12.334;2023-05-20T00:44:29;11.90;99.90
10386;DHT22;34307;51.332;12.334;2023-05-20T00:46:57;11.90;99.90
10386;DHT22;34307;51.332;12.334;2023-05-20T00:49:25;11.90;99.90
10386;DHT22;34307;51.332;12.334;2023-05-20T00:51:54;11.90;99.90
10386;DHT22;34307;51.332;12.334;2023-05-20T00:54:23;11.90;99.90
10386;DHT22;34307;51.332;12.334;2023-05-20T00:56:52;11.90;99.90
10386;DHT22;34307;51.332;12.334;2023-05-20T00:59:25;11.90;99.90
10386;DHT22;34307;51.332;12.334;2023-05-20T01:01:55;11.90;99.90
10386;DHT22;34307;51.332;12.334;2023-05-20T01:04:26;12.00;99.90
10386;DHT22;34307;51.332;12.334;2023-05-20T01:06:56;12.00;99.90
10386;DHT22;34307;51.332;12.334;2023-05-20T01:09:32;12.00;99.90
10386;DHT22;34307;51.332;12.334;2023-05-20T01:12:03;12.00;99.90
10386;DHT22;34307;51.332;12.334;2023-05-20T01:14:43;12.00;99.90
10386;DHT22;34307;51.332;12.334;2023-05-20T01:17:15;12.00;99.90
10386;DHT22;34307;51.332;12.334;2023-05-20T01:19:45;12.10;99.90
10386;DHT22;34307;51.332;12.334;2023-05-20T01:22:14;12.10;99.90
10386;DHT22;34307;51.332;12.334;2023-05-20T01:24:46;12.10;99.90
10386;DHT22;34307;51.332;12.334;2023-05-20T01:27:14;12.10;99.90
10386;DHT22;34307;51.332;12.334;2023-05-20T01:29:47;12.10;99.90
10386;DHT22;34307;51.332;12.334;2023-05-20T01:32:19;12.10;99.90
10386;DHT22;34307;51.332;12.334;2023-05-20T01:34:51;12.10;99.90
10386;DHT22;34307;51.332;12.334;2023-05-20T01:37:28;12.10;99.90
10386;DHT22;34307;51.332;12.334;2023-05-20T01:39:59;12.10;99.90
10386;DHT22;34307;51.332;12.334;2023-05-20T01:42:28;12.10;99.90
10386;DHT22;34307;51.332;12.334;2023-05-20T01:44:59;12.10;99.90
10386;DHT22;34307;51.332;12.334;2023-05-20T01:47:27;12.10;99.90
10386;DHT22;34307;51.332;12.334;2023-05-20T01:49:58;12.20;99.90
10386;DHT22;34307;51.332;12.334;2023-05-20T01:52:26;12.10;99.90
10386;DHT22;34307;51.332;12.334;2023-05-20T01:54:54;12.10;99.90
10386;DHT22;34307;51.332;12.334;2023-05-20T01:57:24;12.10;99.90
10386;DHT22;34307;51.332;12.334;2023-05-20T01:59:52;12.10;99.90
10386;DHT22;34307;51.332;12.334;2023-05-20T02:02:21;12.10;99.90
10386;DHT22;34307;51.332;12.334;2023-05-20T02:04:52;12.20;99.90
10386;DHT22;34307;51.332;12.334;2023-05-20T02:07:22;12.10;99.90
10386;DHT22;34307;51.332;12.334;2023-05-20T02:09:50;12.10;99.90
10386;DHT22;34307;51.332;12.334;2023-05-20T02:12:19;12.10;99.90
10386;DHT22;34307;51.332;12.334;2023-05-20T02:14:50;12.10;99.90
10386;DHT22;34307;51.332;12.334;2023-05-20T02:17:18;12.10;99.90
10386;DHT22;34307;51.332;12.334;2023-05-20T02:19:46;12.10;99.90
10386;DHT22;34307;51.332;12.334;2023-05-20T02:22:15;12.10;99.90
10386;DHT22;34307;51.332;12.334;2023-05-20T02:24:44;12.20;99.90
10386;DHT22;34307;51.332;12.334;2023-05-20T02:27:15;12.10;99.90
10386;DHT22;34307;51.332;12.334;2023-05-20T02:29:43;12.10;99.90
10386;DHT22;34307;51.332;12.334;2023-05-20T02:32:13;12.20;99.90
10386;DHT22;34307;51.332;12.334;2023-05-20T02:34:42;12.10;99.90
10386;DHT22;34307;51.332;12.334;2023-05-20T02:37:11;12.10;99.90
10386;DHT22;34307;51.332;12.334;2023-05-20T02:39:42;12.10;99.90
10386;DHT22;34307;51.332;12.334;2023-05-20T02:42:11;12.10;99.90
10386;DHT22;34307;51.332;12.334;2023-05-20T02:44:40;12.20;99.90
10386;DHT22;34307;51.332;12.334;2023-05-20T02:47:07;12.10;99.90
10386;DHT22;34307;51.332;12.334;2023-05-20T02:49:39;12.10;99.90
10386;DHT22;34307;51.332;12.334;2023-05-20T02:52:06;12.10;99.90
10386;DHT22;34307;51.332;12.334;2023-05-20T02:54:35;12.10;99.90
10386;DHT22;34307;51.332;12.334;2023-05-20T02:57:03;12.10;99.90
10386;DHT22;34307;51.332;12.334;2023-05-20T02:59:32;12.10;99.90
10386;DHT22;34307;51.332;12.334;2023-05-20T03:02:00;12.10;99.90
10386;DHT22;34307;51.332;12.334;2023-05-20T03:04:29;12.10;99.90
10386;DHT22;34307;51.332;12.334;2023-05-20T03:06:59;12.10;99.90
10386;DHT22;34307;51.332;12.334;2023-05-20T03:09:28;12.10;99.90
10386;DHT22;34307;51.332;12.334;2023-05-20T03:11:56;12.10;99.90
10386;DHT22;34307;51.332;12.334;2023-05-20T03:14:25;12.20;99.90
10386;DHT22;34307;51.332;12.334;2023-05-20T03:16:53;12.10;99.90
10386;DHT22;34307;51.332;12.334;2023-05-20T03:19:22;12.10;99.90
10386;DHT22;34307;51.332;12.334;2023-05-20T03:21:52;12.10;99.90
10386;DHT22;34307;51.332;12.334;2023-05-20T03:24:23;12.10;99.90
10386;DHT22;34307;51.332;12.334;2023-05-20T03:26:51;12.00;99.90
10386;DHT22;34307;51.332;12.334;2023-05-20T03:29:19;12.00;99.90
10386;DHT22;34307;51.332;12.334;2023-05-20T03:31:48;11.90;99.90
10386;DHT22;34307;51.332;12.334;2023-05-20T03:34:16;11.90;99.90
10386;DHT22;34307;51.332;12.334;2023-05-20T03:36:44;11.90;99.90
10386;DHT22;34307;51.332;12.334;2023-05-20T03:39:12;11.80;99.90
10386;DHT22;34307;51.332;12.334;2023-05-20T03:41:51;11.80;99.90
10386;DHT22;34307;51.332;12.334;2023-05-20T03:44:19;11.80;99.90
10386;DHT22;34307;51.332;12.334;2023-05-20T03:46:47;11.80;99.90
10386;DHT22;34307;51.332;12.334;2023-05-20T03:49:15;11.70;99.90
10386;DHT22;34307;51.332;12.334;2023-05-20T03:51:44;11.70;99.90
10386;DHT22;34307;51.332;12.334;2023-05-20T03:54:12;11.70;99.90
10386;DHT22;34307;51.332;12.334;2023-05-20T03:56:43;11.60;99.90
10386;DHT22;34307;51.332;12.334;2023-05-20T03:59:13;11.70;99.90
10386;DHT22;34307;51.332;12.334;2023-05-20T04:01:42;11.60;99.90
10386;DHT22;34307;51.332;12.334;2023-05-20T04:04:13;11.60;99.90
10386;DHT22;34307;51.332;12.334;2023-05-20T04:06:41;11.60;99.90
10386;DHT22;34307;51.332;12.334;2023-05-20T04:09:11;11.60;99.90
10386;DHT22;34307;51.332;12.334;2023-05-20T04:11:39;11.60;99.90
10386;DHT22;34307;51.332;12.334;2023-05-20T04:14:11;11.70;99.90
10386;DHT22;34307;51.332;12.334;2023-05-20T04:16:40;11.70;99.90
10386;DHT22;34307;51.332;12.334;2023-05-20T04:19:09;11.80;99.90
10386;DHT22;34307;51.332;12.334;2023-05-20T04:21:37;11.90;99.90
10386;DHT22;34307;51.332;12.334;2023-05-20T04:24:06;12.00;99.90
10386;DHT22;34307;51.332;12.334;2023-05-20T04:26:35;12.00;99.90
10386;DHT22;34307;51.332;12.334;2023-05-20T04:29:05;12.10;99.90
10386;DHT22;34307;51.332;12.334;2023-05-20T04:31:37;12.20;99.90
10386;DHT22;34307;51.332;12.334;2023-05-20T04:34:05;12.30;99.90
10386;DHT22;34307;51.332;12.334;2023-05-20T04:36:36;12.30;99.90
10386;DHT22;34307;51.332;12.334;2023-05-20T04:39:05;12.40;99.90
10386;DHT22;34307;51.332;12.334;2023-05-20T04:41:37;12.50;99.90
10386;DHT22;34307;51.332;12.334;2023-05-20T04:44:06;12.60;99.90
10386;DHT22;34307;51.332;12.334;2023-05-20T04:46:38;12.60;99.90
10386;DHT22;34307;51.332;12.334;2023-05-20T04:49:07;12.70;99.90
10386;DHT22;34307;51.332;12.334;2023-05-20T04:51:37;12.70;99.90
10386;DHT22;34307;51.332;12.334;2023-05-20T04:54:06;12.70;99.90
10386;DHT22;34307;51.332;12.334;2023-05-20T04:56:34;12.70;99.90
10386;DHT22;34307;51.332;12.334;2023-05-20T04:59:02;12.80;99.90
10386;DHT22;34307;51.332;12.334;2023-05-20T05:01:30;12.90;99.90
10386;DHT22;34307;51.332;12.334;2023-05-20T05:03:59;12.90;99.90
10386;DHT22;34307;51.332;12.334;2023-05-20T05:06:27;12.90;99.90
10386;DHT22;34307;51.332;12.334;2023-05-20T05:08:56;12.90;99.90
10386;DHT22;34307;51.332;12.334;2023-05-20T05:11:24;12.80;99.90
10386;DHT22;34307;51.332;12.334;2023-05-20T05:13:53;12.90;99.90
10386;DHT22;34307;51.332;12.334;2023-05-20T05:16:23;12.90;99.90
10386;DHT22;34307;51.332;12.334;2023-05-20T05:18:53;13.00;99.90
10386;DHT22;34307;51.332;12.334;2023-05-20T05:21:24;13.00;99.90
10386;DHT22;34307;51.332;12.334;2023-05-20T05:23:52;13.00;99.90
10386;DHT22;34307;51.332;12.334;2023-05-20T05:26:24;13.10;99.90
10386;DHT22;34307;51.332;12.334;2023-05-20T05:28:54;13.00;99.90
10386;DHT22;34307;51.332;12.334;2023-05-20T05:31:22;13.10;99.90
10386;DHT22;34307;51.332;12.334;2023-05-20T05:33:50;13.10;99.90
10386;DHT22;34307;51.332;12.334;2023-05-20T05:36:24;13.10;99.90
10386;DHT22;34307;51.332;12.334;2023-05-20T05:38:53;13.10;99.90
10386;DHT22;34307;51.332;12.334;2023-05-20T05:41:21;13.20;99.90
10386;DHT22;34307;51.332;12.334;2023-05-20T05:43:50;13.20;99.90
10386;DHT22;34307;51.332;12.334;2023-05-20T05:46:20;13.30;99.90
10386;DHT22;34307;51.332;12.334;2023-05-20T05:48:52;13.30;99.90
10386;DHT22;34307;51.332;12.334;2023-05-20T05:51:20;13.50;99.90
10386;DHT22;34307;51.332;12.334;2023-05-20T05:53:52;13.60;99.90
10386;DHT22;34307;51.332;12.334;2023-05-20T05:56:22;13.70;99.90
10386;DHT22;34307;51.332;12.334;2023-05-20T05:58:51;13.80;99.90
10386;DHT22;34307;51.332;12.334;2023-05-20T06:01:19;13.80;99.90
10386;DHT22;34307;51.332;12.334;2023-05-20T06:03:48;13.90;99.90
10386;DHT22;34307;51.332;12.334;2023-05-20T06:06:16;14.00;99.90
10386;DHT22;34307;51.332;12.334;2023-05-20T06:08:44;14.10;99.90
10386;DHT22;34307;51.332;12.334;2023-05-20T06:11:13;14.10;99.90
10386;DHT22;34307;51.332;12.334;2023-05-20T06:13:44;14.10;99.90
10386;DHT22;34307;51.332;12.334;2023-05-20T06:16:33;14.10;99.90
10386;DHT22;34307;51.332;12.334;2023-05-20T06:19:03;14.10;99.90
10386;DHT22;34307;51.332;12.334;2023-05-20T06:21:31;14.10;99.90
10386;DHT22;34307;51.332;12.334;2023-05-20T06:23:59;14.10;99.90
10386;DHT22;34307;51.332;12.334;2023-05-20T06:26:33;14.20;99.90
10386;DHT22;34307;51.332;12.334;2023-05-20T06:29:04;14.10;99.90
10386;DHT22;34307;51.332;12.334;2023-05-20T06:31:32;14.10;99.90
10386;DHT22;34307;51.332;12.334;2023-05-20T06:34:03;14.20;99.90
10386;DHT22;34307;51.332;12.334;2023-05-20T06:36:38;14.20;99.90
10386;DHT22;34307;51.332;12.334;2023-05-20T06:39:07;14.30;99.90
10386;DHT22;34307;51.332;12.334;2023-05-20T06:41:40;14.30;99.90
10386;DHT22;34307;51.332;12.334;2023-05-20T06:44:14;14.30;99.90
10386;DHT22;34307;51.332;12.334;2023-05-20T06:46:43;14.50;99.90
10386;DHT22;34307;51.332;12.334;2023-05-20T06:49:12;14.50;99.90
10386;DHT22;34307;51.332;12.334;2023-05-20T06:51:43;14.70;99.90
10386;DHT22;34307;51.332;12.334;2023-05-20T06:54:11;14.60;99.90
10386;DHT22;34307;51.332;12.334;2023-05-20T06:56:44;14.30;99.90
10386;DHT22;34307;51.332;12.334;2023-05-20T06:59:12;14.20;99.90
10386;DHT22;34307;51.332;12.334;2023-05-20T07:01:40;14.20;99.90
10386;DHT22;34307;51.332;12.334;2023-05-20T07:04:16;14.30;99.90
10386;DHT22;34307;51.332;12.334;2023-05-20T07:06:45;14.30;99.90
10386;DHT22;34307;51.332;12.334;2023-05-20T07:09:14;14.20;99.90
10386;DHT22;34307;51.332;12.334;2023-05-20T07:11:43;13.90;99.90
10386;DHT22;34307;51.332;12.334;2023-05-20T07:14:12;13.90;99.90
10386;DHT22;34307;51.332;12.334;2023-05-20T07:16:40;13.90;99.90
10386;DHT22;34307;51.332;12.334;2023-05-20T07:19:08;13.90;99.90
10386;DHT22;34307;51.332;12.334;2023-05-20T07:21:36;13.90;99.90
10386;DHT22;34307;51.332;12.334;2023-05-20T07:24:06;13.90;99.90
10386;DHT22;34307;51.332;12.334;2023-05-20T07:26:34;13.90;99.90
10386;DHT22;34307;51.332;12.334;2023-05-20T07:29:04;13.90;99.90
10386;DHT22;34307;51.332;12.334;2023-05-20T07:31:32;13.90;99.90
10386;DHT22;34307;51.332;12.334;2023-05-20T07:34:00;13.90;99.90
10386;DHT22;34307;51.332;12.334;2023-05-20T07:36:29;14.00;99.90
10386;DHT22;34307;51.332;12.334;2023-05-20T07:38:57;14.10;99.90
10386;DHT22;34307;51.332;12.334;2023-05-20T07:41:31;14.20;99.90
10386;DHT22;34307;51.332;12.334;2023-05-20T07:44:03;14.60;99.90
10386;DHT22;34307;51.332;12.334;2023-05-20T07:46:32;14.60;99.90
10386;DHT22;34307;51.332;12.334;2023-05-20T07:49:01;14.80;99.90
10386;DHT22;34307;51.332;12.334;2023-05-20T07:51:29;14.90;99.90
10386;DHT22;34307;51.332;12.334;2023-05-20T07:54:02;15.10;99.90
10386;DHT22;34307;51.332;12.334;2023-05-20T07:56:34;15.40;99.90
10386;DHT22;34307;51.332;12.334;2023-05-20T07:59:07;15.50;99.90
10386;DHT22;34307;51.332;12.334;2023-05-20T08:01:41;15.80;99.80
10386;DHT22;34307;51.332;12.334;2023-05-20T08:04:09;15.90;96.40
10386;DHT22;34307;51.332;12.334;2023-05-20T08:06:38;15.90;95.70
10386;DHT22;34307;51.332;12.334;2023-05-20T08:09:06;16.00;95.30
10386;DHT22;34307;51.332;12.334;2023-05-20T08:11:43;16.10;94.30
10386;DHT22;34307;51.332;12.334;2023-05-20T08:14:14;16.00;94.10
10386;DHT22;34307;51.332;12.334;2023-05-20T08:16:43;15.90;95.60
10386;DHT22;34307;51.332;12.334;2023-05-20T08:19:12;16.20;94.40
10386;DHT22;34307;51.332;12.334;2023-05-20T08:21:40;16.40;93.40
10386;DHT22;34307;51.332;12.334;2023-05-20T08:24:12;16.70;90.70
10386;DHT22;34307;51.332;12.334;2023-05-20T08:26:41;16.80;86.00
10386;DHT22;34307;51.332;12.334;2023-05-20T08:29:09;16.70;84.80
10386;DHT22;34307;51.332;12.334;2023-05-20T08:31:43;16.60;87.70
10386;DHT22;34307;51.332;12.334;2023-05-20T08:34:11;16.40;89.00
10386;DHT22;34307;51.332;12.334;2023-05-20T08:36:40;16.30;89.90
10386;DHT22;34307;51.332;12.334;2023-05-20T08:39:10;16.30;90.40
10386;DHT22;34307;51.332;12.334;2023-05-20T08:41:42;16.40;91.70
10386;DHT22;34307;51.332;12.334;2023-05-20T08:44:12;16.70;90.00
10386;DHT22;34307;51.332;12.334;2023-05-20T08:46:44;16.70;84.40
10386;DHT22;34307;51.332;12.334;2023-05-20T08:49:15;16.80;85.00
10386;DHT22;34307;51.332;12.334;2023-05-20T08:51:51;17.20;80.40
10386;DHT22;34307;51.332;12.334;2023-05-20T08:54:24;17.50;78.90
10386;DHT22;34307;51.332;12.334;2023-05-20T08:56:56;18.30;72.10
10386;DHT22;34307;51.332;12.334;2023-05-20T08:59:26;18.50;64.80
10386;DHT22;34307;51.332;12.334;2023-05-20T09:01:56;18.10;65.90
10386;DHT22;34307;51.332;12.334;2023-05-20T09:04:27;17.80;67.30
10386;DHT22;34307;51.332;12.334;2023-05-20T09:06:55;17.80;68.00
10386;DHT22;34307;51.332;12.334;2023-05-20T09:09:23;17.90;68.60
10386;DHT22;34307;51.332;12.334;2023-05-20T09:11:52;18.00;66.50
10386;DHT22;34307;51.332;12.334;2023-05-20T09:14:20;18.30;65.40
10386;DHT22;34307;51.332;12.334;2023-05-20T09:16:49;18.30;65.00
10386;DHT22;34307;51.332;12.334;2023-05-20T09:19:21;18.40;64.70
10386;DHT22;34307;51.332;12.334;2023-05-20T09:21:52;18.40;64.70
10386;DHT22;34307;51.332;12.334;2023-05-20T09:24:24;18.30;64.00
10386;DHT22;34307;51.332;12.334;2023-05-20T09:26:53;18.00;65.70
10386;DHT22;34307;51.332;12.334;2023-05-20T09:29:22;18.10;65.00
10386;DHT22;34307;51.332;12.334;2023-05-20T09:31:50;18.10;65.10
10386;DHT22;34307;51.332;12.334;2023-05-20T09:34:20;18.40;64.80
10386;DHT22;34307;51.332;12.334;2023-05-20T09:36:50;18.90;63.20
10386;DHT22;34307;51.332;12.334;2023-05-20T09:39:24;19.50;59.90
10386;DHT22;34307;51.332;12.334;2023-05-20T09:41:56;20.10;58.00
10386;DHT22;34307;51.332;12.334;2023-05-20T09:44:30;19.90;56.30
10386;DHT22;34307;51.332;12.334;2023-05-20T09:47:00;19.70;57.00
10386;DHT22;34307;51.332;12.334;2023-05-20T09:49:30;19.40;56.50
10386;DHT22;34307;51.332;12.334;2023-05-20T09:51:59;18.90;57.60
10386;DHT22;34307;51.332;12.334;2023-05-20T09:54:28;19.00;58.60
10386;DHT22;34307;51.332;12.334;2023-05-20T09:56:59;19.10;58.70
10386;DHT22;34307;51.332;12.334;2023-05-20T09:59:29;19.60;58.40
10386;DHT22;34307;51.332;12.334;2023-05-20T10:01:59;20.00;54.90
10386;DHT22;34307;51.332;12.334;2023-05-20T10:04:28;20.30;55.30
10386;DHT22;34307;51.332;12.334;2023-05-20T10:10:16;20.60;51.80
10386;DHT22;34307;51.332;12.334;2023-05-20T10:12:52;20.60;51.50
10386;DHT22;34307;51.332;12.334;2023-05-20T10:15:29;20.30;51.90
10386;DHT22;34307;51.332;12.334;2023-05-20T10:18:05;20.10;52.80
10386;DHT22;34307;51.332;12.334;2023-05-20T10:20:45;20.30;53.80
10386;DHT22;34307;51.332;12.334;2023-05-20T10:23:21;20.70;51.80
10386;DHT22;34307;51.332;12.334;2023-05-20T10:25:50;21.20;50.70
10386;DHT22;34307;51.332;12.334;2023-05-20T10:28:27;21.20;50.40
10386;DHT22;34307;51.332;12.334;2023-05-20T10:30:56;21.50;48.30
10386;DHT22;34307;51.332;12.334;2023-05-20T10:33:25;21.70;46.50
10386;DHT22;34307;51.332;12.334;2023-05-20T10:35:58;21.30;46.70
10386;DHT22;34307;51.332;12.334;2023-05-20T10:38:25;21.30;47.90
10386;DHT22;34307;51.332;12.334;2023-05-20T10:40:54;21.30;48.70
10386;DHT22;34307;51.332;12.334;2023-05-20T10:43:26;21.50;47.40
10386;DHT22;34307;51.332;12.334;2023-05-20T10:45:56;21.20;46.10
10386;DHT22;34307;51.332;12.334;2023-05-20T10:48:31;21.20;46.90
10386;DHT22;34307;51.332;12.334;2023-05-20T10:51:02;20.80;47.60
10386;DHT22;34307;51.332;12.334;2023-05-20T10:53:38;21.10;48.10
10386;DHT22;34307;51.332;12.334;2023-05-20T10:56:16;21.40;49.00
10386;DHT22;34307;51.332;12.334;2023-05-20T10:58:44;21.20;46.70
10386;DHT22;34307;51.332;12.334;2023-05-20T11:01:12;21.30;49.20
10386;DHT22;34307;51.332;12.334;2023-05-20T11:03:42;21.30;47.70
10386;DHT22;34307;51.332;12.334;2023-05-20T11:06:13;21.40;47.70
10386;DHT22;34307;51.332;12.334;2023-05-20T11:08:44;22.00;46.60
10386;DHT22;34307;51.332;12.334;2023-05-20T11:11:13;22.30;45.30
10386;DHT22;34307;51.332;12.334;2023-05-20T11:13:41;22.50;41.30
10386;DHT22;34307;51.332;12.334;2023-05-20T11:16:09;22.30;41.30
10386;DHT22;34307;51.332;12.334;2023-05-20T11:18:37;21.90;41.50
10386;DHT22;34307;51.332;12.334;2023-05-20T11:21:05;21.80;42.80
10386;DHT22;34307;51.332;12.334;2023-05-20T11:23:36;22.00;43.80
10386;DHT22;34307;51.332;12.334;2023-05-20T11:26:06;22.20;42.10
10386;DHT22;34307;51.332;12.334;2023-05-20T11:28:35;22.70;42.40
10386;DHT22;34307;51.332;12.334;2023-05-20T11:31:03;22.50;40.80
10386;DHT22;34307;51.332;12.334;2023-05-20T11:33:31;21.90;39.80
10386;DHT22;34307;51.332;12.334;2023-05-20T11:36:01;21.80;42.80
10386;DHT22;34307;51.332;12.334;2023-05-20T11:38:41;21.70;42.90
10386;DHT22;34307;51.332;12.334;2023-05-20T11:41:09;21.80;42.40
10386;DHT22;34307;51.332;12.334;2023-05-20T11:43:37;22.20;41.00
10386;DHT22;34307;51.332;12.334;2023-05-20T11:46:07;22.20;39.60
10386;DHT22;34307;51.332;12.334;2023-05-20T11:48:50;22.40;39.00
10386;DHT22;34307;51.332;12.334;2023-05-20T11:51:22;22.40;38.60
10386;DHT22;34307;51.332;12.334;2023-05-20T11:53:51;22.30;40.10
10386;DHT22;34307;51.332;12.334;2023-05-20T11:56:19;22.50;40.00
10386;DHT22;34307;51.332;12.334;2023-05-20T11:58:48;22.60;39.10
10386;DHT22;34307;51.332;12.334;2023-05-20T12:01:16;22.80;37.60
10386;DHT22;34307;51.332;12.334;2023-05-20T12:03:52;23.10;36.20
10386;DHT22;34307;51.332;12.334;2023-05-20T12:06:20;23.40;35.30
10386;DHT22;34307;51.332;12.334;2023-05-20T12:08:51;23.60;35.40
10386;DHT22;34307;51.332;12.334;2023-05-20T12:11:19;24.00;31.80
10386;DHT22;34307;51.332;12.334;2023-05-20T12:13:48;24.20;31.30
10386;DHT22;34307;51.332;12.334;2023-05-20T12:16:16;24.40;32.20
10386;DHT22;34307;51.332;12.334;2023-05-20T12:18:46;24.50;28.70
10386;DHT22;34307;51.332;12.334;2023-05-20T12:21:14;24.70;29.00
10386;DHT22;34307;51.332;12.334;2023-05-20T12:23:42;25.00;28.90
10386;DHT22;34307;51.332;12.334;2023-05-20T12:26:11;24.90;27.50
10386;DHT22;34307;51.332;12.334;2023-05-20T12:28:40;25.10;24.90
10386;DHT22;34307;51.332;12.334;2023-05-20T12:31:08;24.90;25.80
10386;DHT22;34307;51.332;12.334;2023-05-20T12:33:37;24.70;25.30
10386;DHT22;34307;51.332;12.334;2023-05-20T12:36:05;24.40;25.20
10386;DHT22;34307;51.332;12.334;2023-05-20T12:38:32;24.70;27.30
10386;DHT22;34307;51.332;12.334;2023-05-20T12:41:00;24.50;24.40
10386;DHT22;34307;51.332;12.334;2023-05-20T12:43:30;24.40;26.20
10386;DHT22;34307;51.332;12.334;2023-05-20T12:46:01;24.60;26.10
10386;DHT22;34307;51.332;12.334;2023-05-20T12:48:29;24.90;24.30
10386;DHT22;34307;51.332;12.334;2023-05-20T12:50:57;25.50;24.40
10386;DHT22;34307;51.332;12.334;2023-05-20T12:53:25;25.80;22.60
10386;DHT22;34307;51.332;12.334;2023-05-20T12:55:53;25.20;20.90
10386;DHT22;34307;51.332;12.334;2023-05-20T12:58:22;25.00;22.20
10386;DHT22;34307;51.332;12.334;2023-05-20T13:00:51;25.00;21.70
10386;DHT22;34307;51.332;12.334;2023-05-20T13:03:19;24.50;22.30
10386;DHT22;34307;51.332;12.334;2023-05-20T13:05:47;23.70;22.90
10386;DHT22;34307;51.332;12.334;2023-05-20T13:08:16;24.40;24.10
10386;DHT22;34307;51.332;12.334;2023-05-20T13:10:43;25.00;23.10
10386;DHT22;34307;51.332;12.334;2023-05-20T13:13:11;25.50;22.10
10386;DHT22;34307;51.332;12.334;2023-05-20T13:15:51;25.80;19.10
10386;DHT22;34307;51.332;12.334;2023-05-20T13:18:20;25.70;18.80
10386;DHT22;34307;51.332;12.334;2023-05-20T13:20:50;25.90;19.50
10386;DHT22;34307;51.332;12.334;2023-05-20T13:23:18;26.00;19.80
10386;DHT22;34307;51.332;12.334;2023-05-20T13:25:49;26.30;17.60
10386;DHT22;34307;51.332;12.334;2023-05-20T13:28:17;26.30;17.00
10386;DHT22;34307;51.332;12.334;2023-05-20T13:30:46;26.70;18.00
10386;DHT22;34307;51.332;12.334;2023-05-20T13:33:16;26.50;15.50
10386;DHT22;34307;51.332;12.334;2023-05-20T13:35:44;26.00;16.40
10386;DHT22;34307;51.332;12.334;2023-05-20T13:38:12;25.80;15.90
10386;DHT22;34307;51.332;12.334;2023-05-20T13:40:40;25.90;15.80
10386;DHT22;34307;51.332;12.334;2023-05-20T13:43:09;26.10;15.80
10386;DHT22;34307;51.332;12.334;2023-05-20T13:45:37;26.70;14.10
10386;DHT22;34307;51.332;12.334;2023-05-20T13:48:05;26.60;14.60
10386;DHT22;34307;51.332;12.334;2023-05-20T13:50:34;27.10;13.60
10386;DHT22;34307;51.332;12.334;2023-05-20T13:53:02;26.90;11.70
10386;DHT22;34307;51.332;12.334;2023-05-20T13:55:33;27.30;11.90
10386;DHT22;34307;51.332;12.334;2023-05-20T13:58:02;27.40;10.70
10386;DHT22;34307;51.332;12.334;2023-05-20T14:00:31;27.70;9.80
10386;DHT22;34307;51.332;12.334;2023-05-20T14:03:00;28.10;8.50
10386;DHT22;34307;51.332;12.334;2023-05-20T14:05:31;28.50;8.10
10386;DHT22;34307;51.332;12.334;2023-05-20T14:08:00;28.80;5.20
10386;DHT22;34307;51.332;12.334;2023-05-20T14:10:28;29.60;4.20
10386;DHT22;34307;51.332;12.334;2023-05-20T14:12:57;29.40;1.00
10386;DHT22;34307;51.332;12.334;2023-05-20T14:15:28;27.90;1.00
10386;DHT22;34307;51.332;12.334;2023-05-20T14:17:59;27.80;2.40
10386;DHT22;34307;51.332;12.334;2023-05-20T14:20:29;27.60;2.80
10386;DHT22;34307;51.332;12.334;2023-05-20T14:22:57;27.60;3.10
10386;DHT22;34307;51.332;12.334;2023-05-20T14:25:30;27.70;2.00
10386;DHT22;34307;51.332;12.334;2023-05-20T14:28:05;28.50;2.40
10386;DHT22;34307;51.332;12.334;2023-05-20T14:30:37;29.00;1.20
10386;DHT22;34307;51.332;12.334;2023-05-20T14:33:05;28.80;1.00
10386;DHT22;34307;51.332;12.334;2023-05-20T14:35:34;29.00;1.00
10386;DHT22;34307;51.332;12.334;2023-05-20T14:38:02;28.50;1.00
10386;DHT22;34307;51.332;12.334;2023-05-20T14:40:31;28.70;1.00
10386;DHT22;34307;51.332;12.334;2023-05-20T14:42:59;27.90;1.00
10386;DHT22;34307;51.332;12.334;2023-05-20T14:45:27;27.90;1.00
10386;DHT22;34307;51.332;12.334;2023-05-20T14:47:55;28.50;1.00
10386;DHT22;34307;51.332;12.334;2023-05-20T14:50:23;28.60;1.00
10386;DHT22;34307;51.332;12.334;2023-05-20T14:52:51;28.60;1.00
10386;DHT22;34307;51.332;12.334;2023-05-20T14:55:20;28.10;1.00
10386;DHT22;34307;51.332;12.334;2023-05-20T14:57:50;27.70;1.00
10386;DHT22;34307;51.332;12.334;2023-05-20T15:00:18;28.30;1.00
10386;DHT22;34307;51.332;12.334;2023-05-20T15:02:49;28.40;1.00
10386;DHT22;34307;51.332;12.334;2023-05-20T15:05:17;29.00;1.00
10386;DHT22;34307;51.332;12.334;2023-05-20T15:07:45;29.00;1.00
10386;DHT22;34307;51.332;12.334;2023-05-20T15:10:13;28.80;1.00
10386;DHT22;34307;51.332;12.334;2023-05-20T15:12:42;28.40;1.00
10386;DHT22;34307;51.332;12.334;2023-05-20T15:15:11;28.70;1.00
10386;DHT22;34307;51.332;12.334;2023-05-20T15:17:39;28.30;1.00
10386;DHT22;34307;51.332;12.334;2023-05-20T15:20:08;28.20;1.00
10386;DHT22;34307;51.332;12.334;2023-05-20T15:22:36;28.00;1.00
10386;DHT22;34307;51.332;12.334;2023-05-20T15:25:05;27.90;1.00
10386;DHT22;34307;51.332;12.334;2023-05-20T15:27:33;28.00;1.00
10386;DHT22;34307;51.332;12.334;2023-05-20T15:30:02;27.90;1.00
10386;DHT22;34307;51.332;12.334;2023-05-20T15:32:31;28.20;1.00
10386;DHT22;34307;51.332;12.334;2023-05-20T15:34:59;27.60;1.00
10386;DHT22;34307;51.332;12.334;2023-05-20T15:37:28;27.00;1.00